sensor_id;sensor_type;location;lat;lon;timestamp;pressure;altitude;pressure_sealevel;temperature;humidity
63006;BME280;53704;52.532;6.426;2024-02-15T00:02:03;101612.00;;;10.39;100.00
63006;BME280;53704;52.532;6.426;2024-02-15T00:04:29;101625.31;;;10.30;100.00
63006;BME280;53704;52.532;6.426;2024-02-15T00:06:55;101625.03;;;10.34;100.00
63006;BME280;53704;52.532;6.426;2024-02-15T00:09:21;101626.44;;;10.28;100.00
63006;BME280;53704;52.532;6.426;2024-02-15T00:11:49;101617.38;;;10.29;100.00
63006;BME280;53704;52.532;6.426;2024-02-15T00:14:18;101610.84;;;10.31;100.00
63006;BME280;53704;52.532;6.426;2024-02-15T00:16:45;101610.31;;;10.38;100.00
63006;BME280;53704;52.532;6.426;2024-02-15T00:19:11;101609.88;;;10.32;100.00
63006;BME280;53704;52.532;6.426;2024-02-15T00:21:36;101614.00;;;10.37;100.00
63006;BME280;53704;52.532;6.426;2024-02-15T00:24:02;101618.38;;;10.47;100.00
63006;BME280;53704;52.532;6.426;2024-02-15T00:26:28;101612.16;;;10.37;100.00
63006;BME280;53704;52.532;6.426;2024-02-15T00:28:56;101606.91;;;10.55;100.00
63006;BME280;53704;52.532;6.426;2024-02-15T00:31:23;101608.03;;;10.43;100.00
63006;BME280;53704;52.532;6.426;2024-02-15T00:33:49;101609.44;;;10.37;100.00
63006;BME280;53704;52.532;6.426;2024-02-15T00:36:15;101612.44;;;10.44;100.00
63006;BME280;53704;52.532;6.426;2024-02-15T00:38:41;101605.50;;;10.41;100.00
63006;BME280;53704;52.532;6.426;2024-02-15T00:41:08;101604.66;;;10.41;100.00
63006;BME280;53704;52.532;6.426;2024-02-15T00:43:37;101600.81;;;10.43;100.00
63006;BME280;53704;52.532;6.426;2024-02-15T00:46:03;101615.28;;;10.42;100.00
63006;BME280;53704;52.532;6.426;2024-02-15T00:48:30;101604.50;;;10.42;100.00
63006;BME280;53704;52.532;6.426;2024-02-15T00:50:56;101603.63;;;10.42;100.00
63006;BME280;53704;52.532;6.426;2024-02-15T00:53:21;101602.81;;;10.41;100.00
63006;BME280;53704;52.532;6.426;2024-02-15T00:55:48;101606.47;;;10.40;100.00
63006;BME280;53704;52.532;6.426;2024-02-15T00:58:14;101609.59;;;10.45;100.00
63006;BME280;53704;52.532;6.426;2024-02-15T01:00:41;101607.03;;;10.54;100.00
63006;BME280;53704;52.532;6.426;2024-02-15T01:03:07;101610.59;;;10.44;100.00
63006;BME280;53704;52.532;6.426;2024-02-15T01:05:33;101606.75;;;10.57;100.00
63006;BME280;53704;52.532;6.426;2024-02-15T01:07:59;101602.03;;;10.68;100.00
63006;BME280;53704;52.532;6.426;2024-02-15T01:10:25;101609.72;;;10.63;100.00
63006;BME280;53704;52.532;6.426;2024-02-15T01:12:52;101611.41;;;10.64;100.00
63006;BME280;53704;52.532;6.426;2024-02-15T01:15:18;101610.13;;;10.59;100.00
63006;BME280;53704;52.532;6.426;2024-02-15T01:17:46;101611.88;;;10.50;100.00
63006;BME280;53704;52.532;6.426;2024-02-15T01:20:14;101610.84;;;10.71;100.00
63006;BME280;53704;52.532;6.426;2024-02-15T01:22:40;101610.13;;;10.68;100.00
63006;BME280;53704;52.532;6.426;2024-02-15T01:25:10;101605.00;;;10.65;100.00
63006;BME280;53704;52.532;6.426;2024-02-15T01:27:36;101600.78;;;10.63;100.00
63006;BME280;53704;52.532;6.426;2024-02-15T01:30:02;101606.19;;;10.63;100.00
63006;BME280;53704;52.532;6.426;2024-02-15T01:32:31;101605.44;;;10.61;100.00
63006;BME280;53704;52.532;6.426;2024-02-15T01:34:57;101605.16;;;10.74;100.00
63006;BME280;53704;52.532;6.426;2024-02-15T01:37:23;101608.00;;;10.62;100.00
63006;BME280;53704;52.532;6.426;2024-02-15T01:39:50;101604.03;;;10.66;100.00
63006;BME280;53704;52.532;6.426;2024-02-15T01:42:16;101599.59;;;10.75;100.00
63006;BME280;53704;52.532;6.426;2024-02-15T01:44:41;101612.53;;;10.72;100.00
63006;BME280;53704;52.532;6.426;2024-02-15T01:47:10;101602.63;;;10.72;100.00
63006;BME280;53704;52.532;6.426;2024-02-15T01:49:37;101603.16;;;10.76;100.00
63006;BME280;53704;52.532;6.426;2024-02-15T01:52:04;101601.47;;;10.65;100.00
63006;BME280;53704;52.532;6.426;2024-02-15T01:54:34;101601.59;;;10.73;100.00
63006;BME280;53704;52.532;6.426;2024-02-15T01:57:01;101601.50;;;10.55;100.00
63006;BME280;53704;52.532;6.426;2024-02-15T01:59:28;101589.72;;;10.66;100.00
63006;BME280;53704;52.532;6.426;2024-02-15T02:01:54;101591.00;;;10.62;100.00
63006;BME280;53704;52.532;6.426;2024-02-15T02:04:23;101598.66;;;10.66;100.00
63006;BME280;53704;52.532;6.426;2024-02-15T02:06:49;101601.09;;;10.60;100.00
63006;BME280;53704;52.532;6.426;2024-02-15T02:09:15;101595.56;;;10.52;100.00
63006;BME280;53704;52.532;6.426;2024-02-15T02:11:42;101590.16;;;10.61;100.00
63006;BME280;53704;52.532;6.426;2024-02-15T02:14:10;101594.38;;;10.64;100.00
63006;BME280;53704;52.532;6.426;2024-02-15T02:16:36;101593.41;;;10.65;100.00
63006;BME280;53704;52.532;6.426;2024-02-15T02:19:02;101588.56;;;10.68;100.00
63006;BME280;53704;52.532;6.426;2024-02-15T02:21:33;101588.13;;;10.73;100.00
63006;BME280;53704;52.532;6.426;2024-02-15T02:24:02;101581.38;;;10.69;100.00
63006;BME280;53704;52.532;6.426;2024-02-15T02:26:33;101588.13;;;10.73;100.00
63006;BME280;53704;52.532;6.426;2024-02-15T02:29:02;101588.44;;;10.70;100.00
63006;BME280;53704;52.532;6.426;2024-02-15T02:31:34;101589.84;;;10.74;100.00
63006;BME280;53704;52.532;6.426;2024-02-15T02:34:00;101588.72;;;10.67;100.00
63006;BME280;53704;52.532;6.426;2024-02-15T02:36:26;101579.50;;;10.70;100.00
63006;BME280;53704;52.532;6.426;2024-02-15T02:38:55;101571.38;;;10.79;100.00
63006;BME280;53704;52.532;6.426;2024-02-15T02:41:20;101582.06;;;10.71;100.00
63006;BME280;53704;52.532;6.426;2024-02-15T02:43:46;101578.66;;;10.59;100.00
63006;BME280;53704;52.532;6.426;2024-02-15T02:46:12;101584.16;;;10.77;100.00
63006;BME280;53704;52.532;6.426;2024-02-15T02:48:41;101566.19;;;10.68;100.00
63006;BME280;53704;52.532;6.426;2024-02-15T02:51:07;101567.31;;;10.65;100.00
63006;BME280;53704;52.532;6.426;2024-02-15T02:53:33;101578.53;;;10.71;100.00
63006;BME280;53704;52.532;6.426;2024-02-15T02:55:59;101578.81;;;10.58;100.00
63006;BME280;53704;52.532;6.426;2024-02-15T02:58:25;101569.00;;;10.76;100.00
63006;BME280;53704;52.532;6.426;2024-02-15T03:00:52;101571.13;;;10.73;100.00
63006;BME280;53704;52.532;6.426;2024-02-15T03:03:18;101567.91;;;10.69;100.00
63006;BME280;53704;52.532;6.426;2024-02-15T03:05:45;101577.09;;;10.66;100.00
63006;BME280;53704;52.532;6.426;2024-02-15T03:08:14;101564.34;;;10.68;100.00
63006;BME280;53704;52.532;6.426;2024-02-15T03:10:41;101571.03;;;10.64;100.00
63006;BME280;53704;52.532;6.426;2024-02-15T03:13:08;101556.41;;;10.67;100.00
63006;BME280;53704;52.532;6.426;2024-02-15T03:15:34;101559.81;;;10.69;100.00
63006;BME280;53704;52.532;6.426;2024-02-15T03:18:00;101561.53;;;10.60;100.00
63006;BME280;53704;52.532;6.426;2024-02-15T03:20:32;101557.97;;;10.70;100.00
63006;BME280;53704;52.532;6.426;2024-02-15T03:23:00;101568.16;;;10.76;100.00
63006;BME280;53704;52.532;6.426;2024-02-15T03:25:27;101567.28;;;10.75;100.00
63006;BME280;53704;52.532;6.426;2024-02-15T03:27:57;101563.63;;;10.66;100.00
63006;BME280;53704;52.532;6.426;2024-02-15T03:30:25;101571.56;;;10.68;100.00
63006;BME280;53704;52.532;6.426;2024-02-15T03:32:52;101562.06;;;10.64;100.00
63006;BME280;53704;52.532;6.426;2024-02-15T03:35:22;101570.88;;;10.56;100.00
63006;BME280;53704;52.532;6.426;2024-02-15T03:37:51;101555.59;;;10.57;100.00
63006;BME280;53704;52.532;6.426;2024-02-15T03:40:18;101554.72;;;10.56;100.00
63006;BME280;53704;52.532;6.426;2024-02-15T03:42:44;101565.06;;;10.61;100.00
63006;BME280;53704;52.532;6.426;2024-02-15T03:45:10;101566.66;;;10.54;100.00
63006;BME280;53704;52.532;6.426;2024-02-15T03:47:36;101574.00;;;10.61;100.00
63006;BME280;53704;52.532;6.426;2024-02-15T03:50:06;101570.31;;;10.62;100.00
63006;BME280;53704;52.532;6.426;2024-02-15T03:52:34;101569.19;;;10.55;100.00
63006;BME280;53704;52.532;6.426;2024-02-15T03:55:00;101572.03;;;10.54;100.00
63006;BME280;53704;52.532;6.426;2024-02-15T03:57:27;101560.13;;;10.66;100.00
63006;BME280;53704;52.532;6.426;2024-02-15T03:59:54;101570.59;;;10.59;100.00
63006;BME280;53704;52.532;6.426;2024-02-15T04:02:23;101573.00;;;10.62;100.00
63006;BME280;53704;52.532;6.426;2024-02-15T04:04:52;101564.47;;;10.67;100.00
63006;BME280;53704;52.532;6.426;2024-02-15T04:07:20;101566.63;;;10.63;100.00
63006;BME280;53704;52.532;6.426;2024-02-15T04:09:46;101562.94;;;10.64;100.00
63006;BME280;53704;52.532;6.426;2024-02-15T04:12:12;101569.44;;;10.72;100.00
63006;BME280;53704;52.532;6.426;2024-02-15T04:14:39;101575.41;;;10.65;100.00
63006;BME280;53704;52.532;6.426;2024-02-15T04:17:05;101565.50;;;10.66;100.00
63006;BME280;53704;52.532;6.426;2024-02-15T04:19:32;101560.50;;;10.71;100.00
63006;BME280;53704;52.532;6.426;2024-02-15T04:21:58;101568.34;;;10.64;100.00
63006;BME280;53704;52.532;6.426;2024-02-15T04:24:26;101567.59;;;10.72;100.00
63006;BME280;53704;52.532;6.426;2024-02-15T04:26:52;101559.38;;;10.64;100.00
63006;BME280;53704;52.532;6.426;2024-02-15T04:29:18;101553.72;;;10.67;100.00
63006;BME280;53704;52.532;6.426;2024-02-15T04:31:46;101543.22;;;10.74;100.00
63006;BME280;53704;52.532;6.426;2024-02-15T04:34:15;101543.19;;;10.83;100.00
63006;BME280;53704;52.532;6.426;2024-02-15T04:36:41;101545.91;;;10.64;100.00
63006;BME280;53704;52.532;6.426;2024-02-15T04:39:11;101543.03;;;10.75;100.00
63006;BME280;53704;52.532;6.426;2024-02-15T04:41:43;101552.13;;;10.74;100.00
63006;BME280;53704;52.532;6.426;2024-02-15T04:44:11;101546.78;;;10.64;100.00
63006;BME280;53704;52.532;6.426;2024-02-15T04:46:37;101538.41;;;10.67;100.00
63006;BME280;53704;52.532;6.426;2024-02-15T04:49:02;101545.22;;;10.62;100.00
63006;BME280;53704;52.532;6.426;2024-02-15T04:51:28;101535.28;;;10.62;100.00
63006;BME280;53704;52.532;6.426;2024-02-15T04:53:54;101541.94;;;10.68;100.00
63006;BME280;53704;52.532;6.426;2024-02-15T04:56:20;101536.41;;;10.70;100.00
63006;BME280;53704;52.532;6.426;2024-02-15T04:58:46;101538.13;;;10.71;100.00
63006;BME280;53704;52.532;6.426;2024-02-15T05:01:17;101537.16;;;10.62;100.00
63006;BME280;53704;52.532;6.426;2024-02-15T05:03:44;101530.06;;;10.71;100.00
63006;BME280;53704;52.532;6.426;2024-02-15T05:06:09;101524.09;;;10.67;100.00
63006;BME280;53704;52.532;6.426;2024-02-15T05:08:38;101524.19;;;10.75;100.00
63006;BME280;53704;52.532;6.426;2024-02-15T05:11:11;101511.94;;;10.63;100.00
63006;BME280;53704;52.532;6.426;2024-02-15T05:13:47;101509.63;;;10.68;100.00
63006;BME280;53704;52.532;6.426;2024-02-15T05:16:16;101497.16;;;10.67;100.00
63006;BME280;53704;52.532;6.426;2024-02-15T05:18:42;101498.03;;;10.58;100.00
63006;BME280;53704;52.532;6.426;2024-02-15T05:21:08;101492.94;;;10.64;100.00
63006;BME280;53704;52.532;6.426;2024-02-15T05:23:36;101497.19;;;10.57;100.00
63006;BME280;53704;52.532;6.426;2024-02-15T05:26:06;101500.34;;;10.53;100.00
63006;BME280;53704;52.532;6.426;2024-02-15T05:28:31;101496.25;;;10.48;100.00
63006;BME280;53704;52.532;6.426;2024-02-15T05:31:20;101491.84;;;10.47;100.00
63006;BME280;53704;52.532;6.426;2024-02-15T05:33:49;101491.03;;;10.47;100.00
63006;BME280;53704;52.532;6.426;2024-02-15T05:36:18;101491.56;;;10.50;100.00
63006;BME280;53704;52.532;6.426;2024-02-15T05:38:49;101483.88;;;10.56;100.00
63006;BME280;53704;52.532;6.426;2024-02-15T05:41:18;101492.13;;;10.54;100.00
63006;BME280;53704;52.532;6.426;2024-02-15T05:43:45;101492.72;;;10.38;100.00
63006;BME280;53704;52.532;6.426;2024-02-15T05:46:12;101498.53;;;10.43;100.00
63006;BME280;53704;52.532;6.426;2024-02-15T05:48:38;101488.75;;;10.42;100.00
63006;BME280;53704;52.532;6.426;2024-02-15T05:51:06;101483.09;;;10.26;100.00
63006;BME280;53704;52.532;6.426;2024-02-15T05:53:32;101487.91;;;10.32;100.00
63006;BME280;53704;52.532;6.426;2024-02-15T05:56:07;101492.19;;;10.35;100.00
63006;BME280;53704;52.532;6.426;2024-02-15T05:58:36;101499.69;;;10.31;100.00
63006;BME280;53704;52.532;6.426;2024-02-15T06:01:03;101495.28;;;10.40;100.00
63006;BME280;53704;52.532;6.426;2024-02-15T06:03:34;101496.56;;;10.36;100.00
63006;BME280;53704;52.532;6.426;2024-02-15T06:06:03;101499.09;;;10.37;100.00
63006;BME280;53704;52.532;6.426;2024-02-15T06:08:36;101501.50;;;10.40;100.00
63006;BME280;53704;52.532;6.426;2024-02-15T06:11:03;101502.91;;;10.44;100.00
63006;BME280;53704;52.532;6.426;2024-02-15T06:13:31;101501.78;;;10.37;100.00
63006;BME280;53704;52.532;6.426;2024-02-15T06:15:57;101495.28;;;10.30;100.00
63006;BME280;53704;52.532;6.426;2024-02-15T06:18:32;101494.16;;;10.42;100.00
63006;BME280;53704;52.532;6.426;2024-02-15T06:20:59;101484.38;;;10.41;100.00
63006;BME280;53704;52.532;6.426;2024-02-15T06:23:25;101488.47;;;10.45;100.00
63006;BME280;53704;52.532;6.426;2024-02-15T06:25:53;101476.84;;;10.45;100.00
63006;BME280;53704;52.532;6.426;2024-02-15T06:28:21;101469.78;;;10.44;100.00
63006;BME280;53704;52.532;6.426;2024-02-15T06:31:10;101457.84;;;10.46;100.00
63006;BME280;53704;52.532;6.426;2024-02-15T06:33:55;101457.00;;;10.46;100.00
63006;BME280;53704;52.532;6.426;2024-02-15T06:36:56;101454.75;;;10.41;100.00
63006;BME280;53704;52.532;6.426;2024-02-15T06:39:41;101460.16;;;10.41;100.00
63006;BME280;53704;52.532;6.426;2024-02-15T06:42:16;101457.25;;;10.53;100.00
63006;BME280;53704;52.532;6.426;2024-02-15T06:44:48;101452.91;;;10.52;100.00
63006;BME280;53704;52.532;6.426;2024-02-15T06:47:18;101448.78;;;10.47;100.00
63006;BME280;53704;52.532;6.426;2024-02-15T06:49:45;101448.19;;;10.54;100.00
63006;BME280;53704;52.532;6.426;2024-02-15T06:52:15;101445.94;;;10.49;100.00
63006;BME280;53704;52.532;6.426;2024-02-15T06:54:41;101447.81;;;10.39;100.00
63006;BME280;53704;52.532;6.426;2024-02-15T06:57:10;101456.75;;;10.39;100.00
63006;BME280;53704;52.532;6.426;2024-02-15T06:59:37;101449.09;;;10.44;100.00
63006;BME280;53704;52.532;6.426;2024-02-15T07:02:05;101448.19;;;10.54;100.00
63006;BME280;53704;52.532;6.426;2024-02-15T07:04:32;101458.97;;;10.54;100.00
63006;BME280;53704;52.532;6.426;2024-02-15T07:06:59;101450.06;;;10.43;100.00
63006;BME280;53704;52.532;6.426;2024-02-15T07:09:27;101451.78;;;10.44;100.00
63006;BME280;53704;52.532;6.426;2024-02-15T07:11:54;101461.66;;;10.54;100.00
63006;BME280;53704;52.532;6.426;2024-02-15T07:14:21;101467.22;;;10.42;100.00
63006;BME280;53704;52.532;6.426;2024-02-15T07:16:50;101465.81;;;10.38;100.00
63006;BME280;53704;52.532;6.426;2024-02-15T07:19:17;101465.34;;;10.53;100.00
63006;BME280;53704;52.532;6.426;2024-02-15T07:21:43;101469.19;;;10.50;100.00
63006;BME280;53704;52.532;6.426;2024-02-15T07:24:12;101468.75;;;10.45;100.00
63006;BME280;53704;52.532;6.426;2024-02-15T07:26:39;101464.94;;;10.47;100.00
63006;BME280;53704;52.532;6.426;2024-02-15T07:29:07;101468.03;;;10.53;100.00
63006;BME280;53704;52.532;6.426;2024-02-15T07:31:34;101468.44;;;10.58;100.00
63006;BME280;53704;52.532;6.426;2024-02-15T07:34:04;101463.34;;;10.55;100.00
63006;BME280;53704;52.532;6.426;2024-02-15T07:36:31;101461.25;;;10.48;100.00
63006;BME280;53704;52.532;6.426;2024-02-15T07:38:57;101462.06;;;10.59;100.00
63006;BME280;53704;52.532;6.426;2024-02-15T07:41:26;101468.03;;;10.53;100.00
63006;BME280;53704;52.532;6.426;2024-02-15T07:43:54;101472.28;;;10.55;100.00
63006;BME280;53704;52.532;6.426;2024-02-15T07:46:21;101472.22;;;10.65;100.00
63006;BME280;53704;52.532;6.426;2024-02-15T07:48:47;101470.69;;;10.62;100.00
63006;BME280;53704;52.532;6.426;2024-02-15T07:51:15;101462.06;;;10.59;100.00
63006;BME280;53704;52.532;6.426;2024-02-15T07:53:43;101463.16;;;10.66;100.00
63006;BME280;53704;52.532;6.426;2024-02-15T07:56:14;101476.41;;;10.49;100.00
63006;BME280;53704;52.532;6.426;2024-02-15T07:58:45;101481.78;;;10.49;100.00
63006;BME280;53704;52.532;6.426;2024-02-15T08:01:14;101485.88;;;10.54;100.00
63006;BME280;53704;52.532;6.426;2024-02-15T08:03:41;101482.34;;;10.53;100.00
63006;BME280;53704;52.532;6.426;2024-02-15T08:06:10;101496.94;;;10.50;100.00
63006;BME280;53704;52.532;6.426;2024-02-15T08:08:41;101497.50;;;10.54;100.00
63006;BME280;53704;52.532;6.426;2024-02-15T08:11:08;101495.69;;;10.45;100.00
63006;BME280;53704;52.532;6.426;2024-02-15T08:13:51;101498.81;;;10.50;100.00
63006;BME280;53704;52.532;6.426;2024-02-15T08:16:21;101513.09;;;10.50;100.00
63006;BME280;53704;52.532;6.426;2024-02-15T08:18:50;101516.75;;;10.59;100.00
63006;BME280;53704;52.532;6.426;2024-02-15T08:21:30;101510.66;;;10.57;100.00
63006;BME280;53704;52.532;6.426;2024-02-15T08:24:00;101512.81;;;10.54;100.00
63006;BME280;53704;52.532;6.426;2024-02-15T08:26:39;101506.25;;;10.56;100.00
63006;BME280;53704;52.532;6.426;2024-02-15T08:29:07;101492.50;;;10.59;100.00
63006;BME280;53704;52.532;6.426;2024-02-15T08:31:33;101456.91;;;10.65;100.00
63006;BME280;53704;52.532;6.426;2024-02-15T08:34:00;101448.00;;;10.65;100.00
63006;BME280;53704;52.532;6.426;2024-02-15T08:36:27;101451.38;;;10.67;100.00
63006;BME280;53704;52.532;6.426;2024-02-15T08:38:52;101432.00;;;10.63;100.00
63006;BME280;53704;52.532;6.426;2024-02-15T08:41:19;101428.91;;;10.58;100.00
63006;BME280;53704;52.532;6.426;2024-02-15T08:43:55;101465.59;;;10.59;100.00
63006;BME280;53704;52.532;6.426;2024-02-15T08:46:26;101479.03;;;10.69;100.00
63006;BME280;53704;52.532;6.426;2024-02-15T08:48:53;101478.31;;;10.67;100.00
63006;BME280;53704;52.532;6.426;2024-02-15T08:51:19;101472.47;;;10.72;100.00
63006;BME280;53704;52.532;6.426;2024-02-15T08:53:47;101467.50;;;10.77;100.00
63006;BME280;53704;52.532;6.426;2024-02-15T08:56:14;101467.84;;;10.64;100.00
63006;BME280;53704;52.532;6.426;2024-02-15T08:58:40;101460.88;;;10.71;100.00
63006;BME280;53704;52.532;6.426;2024-02-15T09:01:14;101459.97;;;10.80;100.00
63006;BME280;53704;52.532;6.426;2024-02-15T09:03:40;101463.91;;;10.86;100.00
63006;BME280;53704;52.532;6.426;2024-02-15T09:06:07;101456.84;;;10.85;100.00
63006;BME280;53704;52.532;6.426;2024-02-15T09:08:34;101447.50;;;10.79;100.00
63006;BME280;53704;52.532;6.426;2024-02-15T09:11:01;101445.75;;;10.88;100.00
63006;BME280;53704;52.532;6.426;2024-02-15T09:13:27;101449.34;;;10.79;100.00
63006;BME280;53704;52.532;6.426;2024-02-15T09:15:54;101453.72;;;10.80;100.00
63006;BME280;53704;52.532;6.426;2024-02-15T09:18:21;101457.13;;;10.82;100.00
63006;BME280;53704;52.532;6.426;2024-02-15T09:20:48;101461.25;;;10.76;100.00
63006;BME280;53704;52.532;6.426;2024-02-15T09:23:21;101457.69;;;10.85;100.00
63006;BME280;53704;52.532;6.426;2024-02-15T09:25:49;101465.28;;;10.72;100.00
63006;BME280;53704;52.532;6.426;2024-02-15T09:28:18;101453.72;;;10.80;100.00
63006;BME280;53704;52.532;6.426;2024-02-15T09:30:53;101454.97;;;10.85;100.00
63006;BME280;53704;52.532;6.426;2024-02-15T09:33:25;101465.25;;;11.00;100.00
63006;BME280;53704;52.532;6.426;2024-02-15T09:35:52;101465.53;;;10.97;100.00
63006;BME280;53704;52.532;6.426;2024-02-15T09:38:20;101467.41;;;10.96;100.00
63006;BME280;53704;52.532;6.426;2024-02-15T09:40:50;101456.38;;;10.90;100.00
63006;BME280;53704;52.532;6.426;2024-02-15T09:43:23;101461.78;;;10.90;100.00
63006;BME280;53704;52.532;6.426;2024-02-15T09:45:54;101457.69;;;10.85;100.00
63006;BME280;53704;52.532;6.426;2024-02-15T09:48:23;101453.25;;;10.94;100.00
63006;BME280;53704;52.532;6.426;2024-02-15T09:50:52;101458.16;;;10.99;100.00
63006;BME280;53704;52.532;6.426;2024-02-15T09:53:22;101443.00;;;10.98;100.00
63006;BME280;53704;52.532;6.426;2024-02-15T09:55:53;101439.44;;;10.97;100.00
63006;BME280;53704;52.532;6.426;2024-02-15T09:58:20;101446.22;;;11.01;100.00
63006;BME280;53704;52.532;6.426;2024-02-15T10:00:49;101445.63;;;11.08;100.00
63006;BME280;53704;52.532;6.426;2024-02-15T10:03:18;101447.88;;;11.12;100.00
63006;BME280;53704;52.532;6.426;2024-02-15T10:05:48;101455.88;;;11.04;100.00
63006;BME280;53704;52.532;6.426;2024-02-15T10:08:15;101451.63;;;11.01;100.00
63006;BME280;53704;52.532;6.426;2024-02-15T10:10:43;101459.34;;;11.14;100.00
63006;BME280;53704;52.532;6.426;2024-02-15T10:13:13;101457.56;;;11.05;100.00
63006;BME280;53704;52.532;6.426;2024-02-15T10:15:40;101458.94;;;11.09;100.00
63006;BME280;53704;52.532;6.426;2024-02-15T10:18:08;101457.69;;;11.03;100.00
63006;BME280;53704;52.532;6.426;2024-02-15T10:20:39;101454.09;;;11.13;100.00
63006;BME280;53704;52.532;6.426;2024-02-15T10:23:14;101452.97;;;11.15;100.00
63006;BME280;53704;52.532;6.426;2024-02-15T10:25:44;101455.97;;;11.12;100.00
63006;BME280;53704;52.532;6.426;2024-02-15T10:28:11;101464.03;;;11.12;100.00
63006;BME280;53704;52.532;6.426;2024-02-15T10:30:39;101458.50;;;11.14;100.00
63006;BME280;53704;52.532;6.426;2024-02-15T10:33:06;101464.78;;;11.04;100.00
63006;BME280;53704;52.532;6.426;2024-02-15T10:35:36;101465.03;;;11.11;100.00
63006;BME280;53704;52.532;6.426;2024-02-15T10:38:12;101466.59;;;11.14;100.00
63006;BME280;53704;52.532;6.426;2024-02-15T10:40:41;101464.66;;;11.06;100.00
63006;BME280;53704;52.532;6.426;2024-02-15T10:43:09;101464.88;;;11.13;100.00
63006;BME280;53704;52.532;6.426;2024-02-15T10:45:39;101463.25;;;11.02;100.00
63006;BME280;53704;52.532;6.426;2024-02-15T10:48:08;101464.41;;;10.99;100.00
63006;BME280;53704;52.532;6.426;2024-02-15T10:50:34;101468.66;;;11.20;100.00
63006;BME280;53704;52.532;6.426;2024-02-15T10:53:11;101452.88;;;11.07;100.00
63006;BME280;53704;52.532;6.426;2024-02-15T10:55:57;101455.03;;;11.21;100.00
63006;BME280;53704;52.532;6.426;2024-02-15T10:58:26;101467.34;;;11.24;100.00
63006;BME280;53704;52.532;6.426;2024-02-15T11:00:59;101455.50;;;11.17;100.00
63006;BME280;53704;52.532;6.426;2024-02-15T11:03:34;101460.44;;;11.21;100.00
63006;BME280;53704;52.532;6.426;2024-02-15T11:06:02;101456.34;;;11.17;100.00
63006;BME280;53704;52.532;6.426;2024-02-15T11:08:31;101456.72;;;11.22;100.00
63006;BME280;53704;52.532;6.426;2024-02-15T11:10:58;101462.97;;;11.23;100.00
63006;BME280;53704;52.532;6.426;2024-02-15T11:13:27;101461.72;;;11.17;100.00
63006;BME280;53704;52.532;6.426;2024-02-15T11:15:55;101455.13;;;11.12;100.00
63006;BME280;53704;52.532;6.426;2024-02-15T11:18:46;101458.41;;;11.06;100.00
63006;BME280;53704;52.532;6.426;2024-02-15T11:21:55;101448.19;;;11.09;100.00
63006;BME280;53704;52.532;6.426;2024-02-15T11:24:28;101439.63;;;11.14;100.00
63006;BME280;53704;52.532;6.426;2024-02-15T11:27:04;101441.88;;;11.18;100.00
63006;BME280;53704;52.532;6.426;2024-02-15T11:29:51;101431.69;;;11.12;100.00
63006;BME280;53704;52.532;6.426;2024-02-15T11:32:38;101422.78;;;11.30;100.00
63006;BME280;53704;52.532;6.426;2024-02-15T11:35:20;101421.63;;;11.32;100.00
63006;BME280;53704;52.532;6.426;2024-02-15T11:42:45;101431.31;;;11.25;100.00
63006;BME280;53704;52.532;6.426;2024-02-15T11:45:15;101424.34;;;11.32;100.00
63006;BME280;53704;52.532;6.426;2024-02-15T11:47:47;101432.47;;;11.22;100.00
63006;BME280;53704;52.532;6.426;2024-02-15T11:50:21;101428.78;;;11.23;100.00
63006;BME280;53704;52.532;6.426;2024-02-15T11:52:49;101425.09;;;11.25;100.00
63006;BME280;53704;52.532;6.426;2024-02-15T11:55:22;101429.09;;;11.20;100.00
63006;BME280;53704;52.532;6.426;2024-02-15T11:57:58;101426.69;;;11.17;100.00
63006;BME280;53704;52.532;6.426;2024-02-15T12:00:39;101415.75;;;11.19;100.00
63006;BME280;53704;52.532;6.426;2024-02-15T12:03:24;101411.38;;;11.36;100.00
63006;BME280;53704;52.532;6.426;2024-02-15T12:06:09;101427.38;;;11.19;100.00
63006;BME280;53704;52.532;6.426;2024-02-15T12:08:54;101414.63;;;11.21;100.00
63006;BME280;53704;52.532;6.426;2024-02-15T12:11:39;101411.69;;;11.33;100.00
63006;BME280;53704;52.532;6.426;2024-02-15T12:14:23;101405.38;;;11.42;100.00
63006;BME280;53704;52.532;6.426;2024-02-15T12:17:12;101398.81;;;11.45;100.00
63006;BME280;53704;52.532;6.426;2024-02-15T12:19:59;101397.59;;;11.39;100.00
63006;BME280;53704;52.532;6.426;2024-02-15T12:22:32;101398.59;;;11.38;100.00
63006;BME280;53704;52.532;6.426;2024-02-15T12:25:00;101399.56;;;11.55;100.00
63006;BME280;53704;52.532;6.426;2024-02-15T12:27:26;101396.81;;;11.47;100.00
63006;BME280;53704;52.532;6.426;2024-02-15T12:29:58;101390.88;;;11.43;100.00
63006;BME280;53704;52.532;6.426;2024-02-15T12:32:25;101394.44;;;11.44;100.00
63006;BME280;53704;52.532;6.426;2024-02-15T12:35:09;101382.00;;;11.51;100.00
63006;BME280;53704;52.532;6.426;2024-02-15T12:37:41;101381.38;;;11.57;100.00
63006;BME280;53704;52.532;6.426;2024-02-15T12:40:14;101388.31;;;11.59;100.00
63006;BME280;53704;52.532;6.426;2024-02-15T12:42:46;101367.44;;;11.62;100.00
63006;BME280;53704;52.532;6.426;2024-02-15T12:45:18;101377.91;;;11.65;100.00
63006;BME280;53704;52.532;6.426;2024-02-15T12:47:50;101381.06;;;11.60;100.00
63006;BME280;53704;52.532;6.426;2024-02-15T12:50:18;101372.47;;;11.56;100.00
63006;BME280;53704;52.532;6.426;2024-02-15T12:52:49;101375.22;;;11.65;100.00
63006;BME280;53704;52.532;6.426;2024-02-15T12:55:19;101377.84;;;11.56;100.00
63006;BME280;53704;52.532;6.426;2024-02-15T12:57:48;101372.19;;;11.68;100.00